Roxboro, NC

1:20 AM EDT on September 02, 2014 (GMT -0400)
Henderson-Oxford | Change Station
CLOSE
Current Station
Airport
Location: Oxford,
Elevation: 528 ft
Nearby Weather Stations

Elev 528 ft 36.36 °N, 78.53 °W | Updated 5 minutes ago

Clear
Clear
73 °F
Feels Like 73 °F
N
5
Wind Variable Wind from SW

Today
High -- | Low -- °F
--% Chance of Precip.
Yesterday
High -- | Low -- °F
Precip. -- in
6:48 AM 7:42 PM
Waxing Crescent, 48% visible
Pressure 30.06 in
Visibility 10.0 miles
Clouds Clear
Dew Point 70 °F
Humidity 88%
Rainfall 0.00 in
Snow Depth Not available.
UV 0 out of 12
Pollen 9.40 out of 12
Ozone Good
PM2.5 Moderate
Flu Activity Not available.
METAR KHNZ 020515Z AUTO 22004KT 10SM CLR 23/21 A3006 RMK AO2 T02300210

More Conditions Fewer Conditions

Pressure 30.06 in
Visibility 10.0 miles
Clouds Clear
Dew Point 70 °F
Humidity 88%
Rainfall 0.00 in
Snow Depth Not available.
UV 0 out of 12
Pollen 9.40 out of 12
Ozone Good
PM2.5 Moderate
Flu Activity Not available.
METAR KHNZ 020515Z AUTO 22004KT 10SM CLR 23/21 A3006 RMK AO2 T02300210

More Conditions Fewer Conditions

10-Day Weather Forecast

Almanac

Astronomy

Sep. 02, 2014 Rise Set
Actual Time 6:48 AM EDT 7:42 PM EDT
Civil Twilight 6:21 AM EDT 8:08 PM EDT
Nautical Twilight 5:50 AM EDT 8:39 PM EDT
Astronomical Twilight 5:18 AM EDT 9:11 PM EDT
Moon 2:18 PM EDT No Moon Set
Length of Visible Light 13h 46m
Length of Day
12h 54m
Tomorrow will be 2m 13s shorter.
Waxing Crescent, 48% of the Moon is Illuminated
Today
Waxing Crescent
Sep 2
First Quarter
Sep 8
Full
Sep 15
Last Quarter
Sep 24
New

Today's Extremes

State Highs State Lows

Community

WunderPhotos

Upload Photos

1,749,575 photos uploaded!

WunderBlogs® & News

Nearby

Air Quality

  Air Quality AQ Index Pollutant
Yesterday Good
OZONE
Yesterday Good
PM2.5
Current Moderate
PM2.5
Current Good
OZONE
Monday Good
OZONE
Monday Good
PM2.5
Tuesday Good
OZONE
Tuesday Good
PM2.5
Wednesday Good
PM2.5
Wednesday Good
OZONE
Thursday Good
PM2.5
Thursday Good
OZONE

Snow Depth

Station Depth Elevation
No new snow has been reported.

Earthquake Activity

City Distance Mag. Time & Date
No recent earthquake activity has been reported nearby.
Minimum magnitude displayed is 2.5.

Coastal Water Temperatures

Place Temperature
No Stations Reporting

Nearby Weather Stations